sensor_id;sensor_type;location;lat;lon;timestamp;temperature;humidity
32334;DHT22;18810;53.040;8.850;2023-04-08T00:01:04;8.30;99.90
32334;DHT22;18810;53.040;8.850;2023-04-08T00:03:31;8.30;99.90
32334;DHT22;18810;53.040;8.850;2023-04-08T00:05:57;8.30;99.90
32334;DHT22;18810;53.040;8.850;2023-04-08T00:08:22;8.40;99.90
32334;DHT22;18810;53.040;8.850;2023-04-08T00:10:48;8.40;99.90
32334;DHT22;18810;53.040;8.850;2023-04-08T00:13:14;8.40;99.90
32334;DHT22;18810;53.040;8.850;2023-04-08T00:15:40;8.40;99.90
32334;DHT22;18810;53.040;8.850;2023-04-08T00:18:06;8.40;99.90
32334;DHT22;18810;53.040;8.850;2023-04-08T00:20:32;8.20;99.90
32334;DHT22;18810;53.040;8.850;2023-04-08T00:22:58;8.40;99.90
32334;DHT22;18810;53.040;8.850;2023-04-08T00:25:24;8.40;99.90
32334;DHT22;18810;53.040;8.850;2023-04-08T00:27:49;8.40;99.90
32334;DHT22;18810;53.040;8.850;2023-04-08T00:30:15;8.40;99.90
32334;DHT22;18810;53.040;8.850;2023-04-08T00:32:41;8.30;99.90
32334;DHT22;18810;53.040;8.850;2023-04-08T00:35:07;8.20;99.90
32334;DHT22;18810;53.040;8.850;2023-04-08T00:37:33;8.20;99.90
32334;DHT22;18810;53.040;8.850;2023-04-08T00:39:59;8.10;99.90
32334;DHT22;18810;53.040;8.850;2023-04-08T00:42:25;8.20;99.90
32334;DHT22;18810;53.040;8.850;2023-04-08T00:44:51;8.10;99.90
32334;DHT22;18810;53.040;8.850;2023-04-08T00:47:17;8.20;99.90
32334;DHT22;18810;53.040;8.850;2023-04-08T00:49:43;8.20;99.90
32334;DHT22;18810;53.040;8.850;2023-04-08T00:52:09;8.30;99.90
32334;DHT22;18810;53.040;8.850;2023-04-08T00:54:36;8.30;99.90
32334;DHT22;18810;53.040;8.850;2023-04-08T00:57:02;8.20;99.90
32334;DHT22;18810;53.040;8.850;2023-04-08T00:59:30;8.30;99.90
32334;DHT22;18810;53.040;8.850;2023-04-08T01:05:01;8.30;99.90
32334;DHT22;18810;53.040;8.850;2023-04-08T01:10:28;8.40;99.90
32334;DHT22;18810;53.040;8.850;2023-04-08T01:13:04;8.40;99.90
32334;DHT22;18810;53.040;8.850;2023-04-08T01:15:32;8.40;99.90
32334;DHT22;18810;53.040;8.850;2023-04-08T01:18:00;8.40;99.90
32334;DHT22;18810;53.040;8.850;2023-04-08T01:20:30;8.50;99.90
32334;DHT22;18810;53.040;8.850;2023-04-08T01:25:36;8.40;99.90
32334;DHT22;18810;53.040;8.850;2023-04-08T01:28:09;8.40;99.90
32334;DHT22;18810;53.040;8.850;2023-04-08T01:30:40;8.40;99.90
32334;DHT22;18810;53.040;8.850;2023-04-08T01:33:07;8.50;99.90
32334;DHT22;18810;53.040;8.850;2023-04-08T01:35:34;8.50;99.90
32334;DHT22;18810;53.040;8.850;2023-04-08T01:38:02;8.50;99.90
32334;DHT22;18810;53.040;8.850;2023-04-08T01:40:30;8.50;99.90
32334;DHT22;18810;53.040;8.850;2023-04-08T01:42:58;8.40;99.90
32334;DHT22;18810;53.040;8.850;2023-04-08T01:45:25;8.40;99.90
32334;DHT22;18810;53.040;8.850;2023-04-08T01:47:52;8.40;99.90
32334;DHT22;18810;53.040;8.850;2023-04-08T01:50:18;8.40;99.90
32334;DHT22;18810;53.040;8.850;2023-04-08T01:52:47;8.40;99.90
32334;DHT22;18810;53.040;8.850;2023-04-08T01:55:14;8.40;99.90
32334;DHT22;18810;53.040;8.850;2023-04-08T01:57:43;8.40;99.90
32334;DHT22;18810;53.040;8.850;2023-04-08T02:00:12;8.50;99.90
32334;DHT22;18810;53.040;8.850;2023-04-08T02:02:41;8.40;99.90
32334;DHT22;18810;53.040;8.850;2023-04-08T02:05:07;8.50;99.90
32334;DHT22;18810;53.040;8.850;2023-04-08T02:07:34;8.40;99.90
32334;DHT22;18810;53.040;8.850;2023-04-08T02:09:59;8.40;99.90
32334;DHT22;18810;53.040;8.850;2023-04-08T02:12:26;8.40;99.90
32334;DHT22;18810;53.040;8.850;2023-04-08T02:14:53;8.30;99.90
32334;DHT22;18810;53.040;8.850;2023-04-08T02:17:20;8.30;99.90
32334;DHT22;18810;53.040;8.850;2023-04-08T02:19:55;8.30;99.90
32334;DHT22;18810;53.040;8.850;2023-04-08T02:25:28;8.30;99.90
32334;DHT22;18810;53.040;8.850;2023-04-08T02:27:55;8.30;99.90
32334;DHT22;18810;53.040;8.850;2023-04-08T02:30:21;8.40;99.90
32334;DHT22;18810;53.040;8.850;2023-04-08T02:32:50;8.30;99.90
32334;DHT22;18810;53.040;8.850;2023-04-08T02:35:16;8.30;99.90
32334;DHT22;18810;53.040;8.850;2023-04-08T02:37:44;8.40;99.90
32334;DHT22;18810;53.040;8.850;2023-04-08T02:40:31;8.40;99.90
32334;DHT22;18810;53.040;8.850;2023-04-08T02:42:57;8.30;99.90
32334;DHT22;18810;53.040;8.850;2023-04-08T02:45:32;8.30;99.90
32334;DHT22;18810;53.040;8.850;2023-04-08T02:48:00;8.20;99.90
32334;DHT22;18810;53.040;8.850;2023-04-08T02:50:26;8.20;99.90
32334;DHT22;18810;53.040;8.850;2023-04-08T02:52:51;8.20;99.90
32334;DHT22;18810;53.040;8.850;2023-04-08T02:55:17;8.20;99.90
32334;DHT22;18810;53.040;8.850;2023-04-08T02:57:43;8.20;99.90
32334;DHT22;18810;53.040;8.850;2023-04-08T03:00:09;8.20;99.90
32334;DHT22;18810;53.040;8.850;2023-04-08T03:02:35;8.30;99.90
32334;DHT22;18810;53.040;8.850;2023-04-08T03:05:01;8.40;99.90
32334;DHT22;18810;53.040;8.850;2023-04-08T03:07:26;8.30;99.90
32334;DHT22;18810;53.040;8.850;2023-04-08T03:09:53;8.30;99.90
32334;DHT22;18810;53.040;8.850;2023-04-08T03:12:20;8.20;99.90
32334;DHT22;18810;53.040;8.850;2023-04-08T03:14:46;8.20;99.90
32334;DHT22;18810;53.040;8.850;2023-04-08T03:17:12;8.30;99.90
32334;DHT22;18810;53.040;8.850;2023-04-08T03:19:38;8.30;99.90
32334;DHT22;18810;53.040;8.850;2023-04-08T03:22:03;8.30;99.90
32334;DHT22;18810;53.040;8.850;2023-04-08T03:24:29;8.30;99.90
32334;DHT22;18810;53.040;8.850;2023-04-08T03:26:55;8.30;99.90
32334;DHT22;18810;53.040;8.850;2023-04-08T03:29:21;8.20;99.90
32334;DHT22;18810;53.040;8.850;2023-04-08T03:31:46;8.30;99.90
32334;DHT22;18810;53.040;8.850;2023-04-08T03:34:12;8.30;99.90
32334;DHT22;18810;53.040;8.850;2023-04-08T03:36:38;8.20;99.90
32334;DHT22;18810;53.040;8.850;2023-04-08T03:39:03;8.20;99.90
32334;DHT22;18810;53.040;8.850;2023-04-08T03:41:30;8.20;99.90
32334;DHT22;18810;53.040;8.850;2023-04-08T03:43:56;8.20;99.90
32334;DHT22;18810;53.040;8.850;2023-04-08T03:46:22;8.30;99.90
32334;DHT22;18810;53.040;8.850;2023-04-08T03:48:48;8.40;99.90
32334;DHT22;18810;53.040;8.850;2023-04-08T03:51:14;8.40;99.90
32334;DHT22;18810;53.040;8.850;2023-04-08T03:53:39;8.50;99.90
32334;DHT22;18810;53.040;8.850;2023-04-08T03:56:05;8.50;99.90
32334;DHT22;18810;53.040;8.850;2023-04-08T03:58:31;8.50;99.90
32334;DHT22;18810;53.040;8.850;2023-04-08T04:00:57;8.40;99.90
32334;DHT22;18810;53.040;8.850;2023-04-08T04:03:23;8.40;99.90
32334;DHT22;18810;53.040;8.850;2023-04-08T04:05:49;8.40;99.90
32334;DHT22;18810;53.040;8.850;2023-04-08T04:08:15;8.40;99.90
32334;DHT22;18810;53.040;8.850;2023-04-08T04:10:40;8.40;99.90
32334;DHT22;18810;53.040;8.850;2023-04-08T04:13:06;8.40;99.90
32334;DHT22;18810;53.040;8.850;2023-04-08T04:15:32;8.40;99.90
32334;DHT22;18810;53.040;8.850;2023-04-08T04:17:57;8.50;99.90
32334;DHT22;18810;53.040;8.850;2023-04-08T04:20:23;8.50;99.90
32334;DHT22;18810;53.040;8.850;2023-04-08T04:22:50;8.50;99.90
32334;DHT22;18810;53.040;8.850;2023-04-08T04:25:16;8.40;99.90
32334;DHT22;18810;53.040;8.850;2023-04-08T04:27:42;8.50;99.90
32334;DHT22;18810;53.040;8.850;2023-04-08T04:30:08;8.50;99.90
32334;DHT22;18810;53.040;8.850;2023-04-08T04:32:34;8.40;99.90
32334;DHT22;18810;53.040;8.850;2023-04-08T04:35:00;8.30;99.90
32334;DHT22;18810;53.040;8.850;2023-04-08T04:37:26;8.40;99.90
32334;DHT22;18810;53.040;8.850;2023-04-08T04:39:52;8.40;99.90
32334;DHT22;18810;53.040;8.850;2023-04-08T04:42:18;8.40;99.90
32334;DHT22;18810;53.040;8.850;2023-04-08T04:44:44;8.40;99.90
32334;DHT22;18810;53.040;8.850;2023-04-08T04:47:09;8.40;99.90
32334;DHT22;18810;53.040;8.850;2023-04-08T04:49:35;8.40;99.90
32334;DHT22;18810;53.040;8.850;2023-04-08T04:52:01;8.40;99.90
32334;DHT22;18810;53.040;8.850;2023-04-08T04:54:26;8.30;99.90
32334;DHT22;18810;53.040;8.850;2023-04-08T04:56:52;8.30;99.90
32334;DHT22;18810;53.040;8.850;2023-04-08T04:59:18;8.30;99.90
32334;DHT22;18810;53.040;8.850;2023-04-08T05:01:44;8.30;99.90
32334;DHT22;18810;53.040;8.850;2023-04-08T05:04:09;8.30;99.90
32334;DHT22;18810;53.040;8.850;2023-04-08T05:06:35;8.30;99.90
32334;DHT22;18810;53.040;8.850;2023-04-08T05:09:01;8.30;99.90
32334;DHT22;18810;53.040;8.850;2023-04-08T05:11:27;8.30;99.90
32334;DHT22;18810;53.040;8.850;2023-04-08T05:13:52;8.30;99.90
32334;DHT22;18810;53.040;8.850;2023-04-08T05:16:21;8.30;99.90
32334;DHT22;18810;53.040;8.850;2023-04-08T05:18:47;8.30;99.90
32334;DHT22;18810;53.040;8.850;2023-04-08T05:21:12;8.30;99.90
32334;DHT22;18810;53.040;8.850;2023-04-08T05:23:38;8.40;99.90
32334;DHT22;18810;53.040;8.850;2023-04-08T05:26:06;8.50;99.90
32334;DHT22;18810;53.040;8.850;2023-04-08T05:28:33;8.50;99.90
32334;DHT22;18810;53.040;8.850;2023-04-08T05:30:59;8.60;99.90
32334;DHT22;18810;53.040;8.850;2023-04-08T05:33:24;8.50;99.90
32334;DHT22;18810;53.040;8.850;2023-04-08T05:35:51;8.50;99.90
32334;DHT22;18810;53.040;8.850;2023-04-08T05:38:17;8.60;99.90
32334;DHT22;18810;53.040;8.850;2023-04-08T05:40:43;8.70;99.90
32334;DHT22;18810;53.040;8.850;2023-04-08T05:43:09;8.70;99.90
32334;DHT22;18810;53.040;8.850;2023-04-08T05:45:34;8.80;99.90
32334;DHT22;18810;53.040;8.850;2023-04-08T05:48:00;8.80;99.90
32334;DHT22;18810;53.040;8.850;2023-04-08T05:50:26;8.90;99.90
32334;DHT22;18810;53.040;8.850;2023-04-08T05:52:51;8.80;99.90
32334;DHT22;18810;53.040;8.850;2023-04-08T05:55:17;8.80;99.90
32334;DHT22;18810;53.040;8.850;2023-04-08T05:57:43;8.80;99.90
32334;DHT22;18810;53.040;8.850;2023-04-08T06:00:09;8.90;99.90
32334;DHT22;18810;53.040;8.850;2023-04-08T06:02:35;9.00;99.90
32334;DHT22;18810;53.040;8.850;2023-04-08T06:05:02;9.10;99.90
32334;DHT22;18810;53.040;8.850;2023-04-08T06:07:31;9.10;99.90
32334;DHT22;18810;53.040;8.850;2023-04-08T06:09:57;9.10;99.90
32334;DHT22;18810;53.040;8.850;2023-04-08T06:12:23;8.90;99.90
32334;DHT22;18810;53.040;8.850;2023-04-08T06:14:53;8.90;99.90
32334;DHT22;18810;53.040;8.850;2023-04-08T06:17:20;8.90;99.90
32334;DHT22;18810;53.040;8.850;2023-04-08T06:19:45;8.80;99.90
32334;DHT22;18810;53.040;8.850;2023-04-08T06:22:11;8.80;99.90
32334;DHT22;18810;53.040;8.850;2023-04-08T06:24:37;8.80;99.90
32334;DHT22;18810;53.040;8.850;2023-04-08T06:27:02;8.60;99.90
32334;DHT22;18810;53.040;8.850;2023-04-08T06:29:28;8.60;99.90
32334;DHT22;18810;53.040;8.850;2023-04-08T06:31:54;8.60;99.90
32334;DHT22;18810;53.040;8.850;2023-04-08T06:34:20;8.70;99.90
32334;DHT22;18810;53.040;8.850;2023-04-08T06:36:46;8.70;99.90
32334;DHT22;18810;53.040;8.850;2023-04-08T06:39:12;8.60;99.90
32334;DHT22;18810;53.040;8.850;2023-04-08T06:41:39;8.60;99.90
32334;DHT22;18810;53.040;8.850;2023-04-08T06:44:05;8.70;99.90
32334;DHT22;18810;53.040;8.850;2023-04-08T06:46:31;8.70;99.90
32334;DHT22;18810;53.040;8.850;2023-04-08T06:48:57;8.80;99.90
32334;DHT22;18810;53.040;8.850;2023-04-08T06:51:22;8.90;99.90
32334;DHT22;18810;53.040;8.850;2023-04-08T06:53:48;8.90;99.90
32334;DHT22;18810;53.040;8.850;2023-04-08T06:56:14;9.10;99.90
32334;DHT22;18810;53.040;8.850;2023-04-08T06:58:40;9.10;99.90
32334;DHT22;18810;53.040;8.850;2023-04-08T07:01:05;9.10;99.90
32334;DHT22;18810;53.040;8.850;2023-04-08T07:03:31;9.10;99.90
32334;DHT22;18810;53.040;8.850;2023-04-08T07:05:57;9.20;99.90
32334;DHT22;18810;53.040;8.850;2023-04-08T07:08:23;9.50;99.90
32334;DHT22;18810;53.040;8.850;2023-04-08T07:10:48;9.40;99.90
32334;DHT22;18810;53.040;8.850;2023-04-08T07:13:16;9.50;99.90
32334;DHT22;18810;53.040;8.850;2023-04-08T07:15:42;9.50;99.90
32334;DHT22;18810;53.040;8.850;2023-04-08T07:18:07;9.50;99.90
32334;DHT22;18810;53.040;8.850;2023-04-08T07:20:33;9.50;99.90
32334;DHT22;18810;53.040;8.850;2023-04-08T07:23:02;9.70;99.90
32334;DHT22;18810;53.040;8.850;2023-04-08T07:25:28;9.70;99.90
32334;DHT22;18810;53.040;8.850;2023-04-08T07:27:54;9.70;99.90
32334;DHT22;18810;53.040;8.850;2023-04-08T07:30:20;9.80;99.90
32334;DHT22;18810;53.040;8.850;2023-04-08T07:32:46;10.00;99.90
32334;DHT22;18810;53.040;8.850;2023-04-08T07:35:12;10.20;99.90
32334;DHT22;18810;53.040;8.850;2023-04-08T07:37:38;10.40;99.90
32334;DHT22;18810;53.040;8.850;2023-04-08T07:40:04;10.30;99.90
32334;DHT22;18810;53.040;8.850;2023-04-08T07:42:30;10.30;99.90
32334;DHT22;18810;53.040;8.850;2023-04-08T07:44:56;10.30;99.90
32334;DHT22;18810;53.040;8.850;2023-04-08T07:47:22;10.20;99.90
32334;DHT22;18810;53.040;8.850;2023-04-08T07:49:47;10.30;99.90
32334;DHT22;18810;53.040;8.850;2023-04-08T07:52:13;10.30;99.90
32334;DHT22;18810;53.040;8.850;2023-04-08T07:54:39;10.20;99.90
32334;DHT22;18810;53.040;8.850;2023-04-08T07:57:07;10.20;99.90
32334;DHT22;18810;53.040;8.850;2023-04-08T07:59:33;10.10;99.90
32334;DHT22;18810;53.040;8.850;2023-04-08T08:01:59;10.20;99.90
32334;DHT22;18810;53.040;8.850;2023-04-08T08:04:24;10.20;99.90
32334;DHT22;18810;53.040;8.850;2023-04-08T08:06:50;10.10;99.90
32334;DHT22;18810;53.040;8.850;2023-04-08T08:09:16;10.20;99.90
32334;DHT22;18810;53.040;8.850;2023-04-08T08:11:42;10.20;99.90
32334;DHT22;18810;53.040;8.850;2023-04-08T08:14:08;10.40;99.90
32334;DHT22;18810;53.040;8.850;2023-04-08T08:16:36;10.60;99.90
32334;DHT22;18810;53.040;8.850;2023-04-08T08:19:03;10.70;99.90
32334;DHT22;18810;53.040;8.850;2023-04-08T08:21:32;10.80;99.90
32334;DHT22;18810;53.040;8.850;2023-04-08T08:23:58;10.80;99.90
32334;DHT22;18810;53.040;8.850;2023-04-08T08:26:27;10.90;99.90
32334;DHT22;18810;53.040;8.850;2023-04-08T08:28:53;11.10;99.90
32334;DHT22;18810;53.040;8.850;2023-04-08T08:31:19;11.20;99.90
32334;DHT22;18810;53.040;8.850;2023-04-08T08:33:44;11.20;99.90
32334;DHT22;18810;53.040;8.850;2023-04-08T08:36:11;11.40;99.90
32334;DHT22;18810;53.040;8.850;2023-04-08T08:38:37;11.50;99.90
32334;DHT22;18810;53.040;8.850;2023-04-08T08:41:03;11.80;99.90
32334;DHT22;18810;53.040;8.850;2023-04-08T08:43:29;11.90;99.90
32334;DHT22;18810;53.040;8.850;2023-04-08T08:45:58;11.90;99.90
32334;DHT22;18810;53.040;8.850;2023-04-08T08:48:25;12.10;99.90
32334;DHT22;18810;53.040;8.850;2023-04-08T08:50:50;12.10;99.90
32334;DHT22;18810;53.040;8.850;2023-04-08T08:53:16;12.30;99.90
32334;DHT22;18810;53.040;8.850;2023-04-08T08:55:44;12.30;99.90
32334;DHT22;18810;53.040;8.850;2023-04-08T08:58:09;12.30;99.90
32334;DHT22;18810;53.040;8.850;2023-04-08T09:00:40;12.20;99.90
32334;DHT22;18810;53.040;8.850;2023-04-08T09:05:52;12.10;99.90
32334;DHT22;18810;53.040;8.850;2023-04-08T09:08:32;12.30;99.90
32334;DHT22;18810;53.040;8.850;2023-04-08T09:11:16;12.40;99.90
32334;DHT22;18810;53.040;8.850;2023-04-08T09:13:43;12.40;99.90
32334;DHT22;18810;53.040;8.850;2023-04-08T09:16:11;12.30;99.90
32334;DHT22;18810;53.040;8.850;2023-04-08T09:18:37;12.50;99.90
32334;DHT22;18810;53.040;8.850;2023-04-08T09:21:05;12.60;99.90
32334;DHT22;18810;53.040;8.850;2023-04-08T09:23:38;12.70;99.90
32334;DHT22;18810;53.040;8.850;2023-04-08T09:26:15;12.80;99.90
32334;DHT22;18810;53.040;8.850;2023-04-08T09:28:42;12.90;99.90
32334;DHT22;18810;53.040;8.850;2023-04-08T09:31:23;13.00;99.90
32334;DHT22;18810;53.040;8.850;2023-04-08T09:33:50;13.00;99.90
32334;DHT22;18810;53.040;8.850;2023-04-08T09:36:17;13.00;99.90
32334;DHT22;18810;53.040;8.850;2023-04-08T09:38:44;12.80;99.90
32334;DHT22;18810;53.040;8.850;2023-04-08T09:41:14;12.70;99.90
32334;DHT22;18810;53.040;8.850;2023-04-08T09:43:47;12.70;99.90
32334;DHT22;18810;53.040;8.850;2023-04-08T09:46:18;12.80;99.90
32334;DHT22;18810;53.040;8.850;2023-04-08T09:49:00;12.70;99.90
32334;DHT22;18810;53.040;8.850;2023-04-08T09:51:35;12.70;99.90
32334;DHT22;18810;53.040;8.850;2023-04-08T09:54:02;13.00;99.90
32334;DHT22;18810;53.040;8.850;2023-04-08T09:56:38;13.00;99.90
32334;DHT22;18810;53.040;8.850;2023-04-08T09:59:13;13.20;99.90
32334;DHT22;18810;53.040;8.850;2023-04-08T10:01:45;13.30;99.90
32334;DHT22;18810;53.040;8.850;2023-04-08T10:04:14;13.00;99.90
32334;DHT22;18810;53.040;8.850;2023-04-08T10:06:44;12.90;99.90
32334;DHT22;18810;53.040;8.850;2023-04-08T10:09:10;12.80;99.90
32334;DHT22;18810;53.040;8.850;2023-04-08T10:11:36;12.80;99.90
32334;DHT22;18810;53.040;8.850;2023-04-08T10:14:02;12.80;99.90
32334;DHT22;18810;53.040;8.850;2023-04-08T10:16:28;12.90;99.90
32334;DHT22;18810;53.040;8.850;2023-04-08T10:18:54;12.90;99.90
32334;DHT22;18810;53.040;8.850;2023-04-08T10:21:38;12.90;99.90
32334;DHT22;18810;53.040;8.850;2023-04-08T10:26:43;12.90;99.90
32334;DHT22;18810;53.040;8.850;2023-04-08T10:31:49;12.80;99.90
32334;DHT22;18810;53.040;8.850;2023-04-08T10:34:19;12.90;99.90
32334;DHT22;18810;53.040;8.850;2023-04-08T10:36:46;12.80;99.90
32334;DHT22;18810;53.040;8.850;2023-04-08T10:39:13;12.80;99.90
32334;DHT22;18810;53.040;8.850;2023-04-08T10:41:47;12.70;99.90
32334;DHT22;18810;53.040;8.850;2023-04-08T10:44:20;12.60;99.90
32334;DHT22;18810;53.040;8.850;2023-04-08T10:46:47;12.80;99.90
32334;DHT22;18810;53.040;8.850;2023-04-08T10:49:13;12.90;99.90
32334;DHT22;18810;53.040;8.850;2023-04-08T10:51:40;13.00;99.90
32334;DHT22;18810;53.040;8.850;2023-04-08T10:54:14;13.00;99.90
32334;DHT22;18810;53.040;8.850;2023-04-08T10:56:51;12.90;99.90
32334;DHT22;18810;53.040;8.850;2023-04-08T10:59:38;12.90;99.90
32334;DHT22;18810;53.040;8.850;2023-04-08T11:02:04;12.80;99.90
32334;DHT22;18810;53.040;8.850;2023-04-08T11:04:29;12.70;99.90
32334;DHT22;18810;53.040;8.850;2023-04-08T11:06:55;12.80;99.90
32334;DHT22;18810;53.040;8.850;2023-04-08T11:09:22;13.00;99.90
32334;DHT22;18810;53.040;8.850;2023-04-08T11:11:48;13.10;99.90
32334;DHT22;18810;53.040;8.850;2023-04-08T11:14:15;13.00;99.90
32334;DHT22;18810;53.040;8.850;2023-04-08T11:16:44;13.10;99.90
32334;DHT22;18810;53.040;8.850;2023-04-08T11:19:09;13.10;99.90
32334;DHT22;18810;53.040;8.850;2023-04-08T11:21:38;13.20;99.90
32334;DHT22;18810;53.040;8.850;2023-04-08T11:24:09;13.20;99.90
32334;DHT22;18810;53.040;8.850;2023-04-08T11:26:36;13.30;99.90
32334;DHT22;18810;53.040;8.850;2023-04-08T11:29:03;13.40;99.90
32334;DHT22;18810;53.040;8.850;2023-04-08T11:31:29;13.50;99.90
32334;DHT22;18810;53.040;8.850;2023-04-08T11:33:56;13.60;99.90
32334;DHT22;18810;53.040;8.850;2023-04-08T11:36:23;13.90;99.90
32334;DHT22;18810;53.040;8.850;2023-04-08T11:38:49;14.10;99.90
32334;DHT22;18810;53.040;8.850;2023-04-08T11:41:15;14.10;99.90
32334;DHT22;18810;53.040;8.850;2023-04-08T11:43:54;14.10;99.90
32334;DHT22;18810;53.040;8.850;2023-04-08T11:46:21;14.20;99.90
32334;DHT22;18810;53.040;8.850;2023-04-08T11:49:07;14.20;99.90
32334;DHT22;18810;53.040;8.850;2023-04-08T11:51:34;13.90;99.90
32334;DHT22;18810;53.040;8.850;2023-04-08T11:54:06;13.90;99.90
32334;DHT22;18810;53.040;8.850;2023-04-08T11:56:49;13.80;99.90
32334;DHT22;18810;53.040;8.850;2023-04-08T11:59:16;13.90;99.90
32334;DHT22;18810;53.040;8.850;2023-04-08T12:01:42;14.10;99.90
32334;DHT22;18810;53.040;8.850;2023-04-08T12:04:10;14.00;99.90
32334;DHT22;18810;53.040;8.850;2023-04-08T12:06:35;13.90;99.90
32334;DHT22;18810;53.040;8.850;2023-04-08T12:09:01;13.90;99.90
32334;DHT22;18810;53.040;8.850;2023-04-08T12:11:27;14.00;99.90
32334;DHT22;18810;53.040;8.850;2023-04-08T12:13:52;13.90;99.90
32334;DHT22;18810;53.040;8.850;2023-04-08T12:16:18;14.00;99.90
32334;DHT22;18810;53.040;8.850;2023-04-08T12:18:45;14.20;99.90
32334;DHT22;18810;53.040;8.850;2023-04-08T12:21:11;14.20;99.90
32334;DHT22;18810;53.040;8.850;2023-04-08T12:23:37;14.10;99.90
32334;DHT22;18810;53.040;8.850;2023-04-08T12:26:03;14.00;99.90
32334;DHT22;18810;53.040;8.850;2023-04-08T12:28:29;13.90;99.90
32334;DHT22;18810;53.040;8.850;2023-04-08T12:30:54;13.80;99.90
32334;DHT22;18810;53.040;8.850;2023-04-08T12:33:20;13.90;99.90
32334;DHT22;18810;53.040;8.850;2023-04-08T12:35:46;14.00;99.90
32334;DHT22;18810;53.040;8.850;2023-04-08T12:38:11;14.00;99.90
32334;DHT22;18810;53.040;8.850;2023-04-08T12:40:37;14.00;99.90
32334;DHT22;18810;53.040;8.850;2023-04-08T12:43:03;13.90;99.90
32334;DHT22;18810;53.040;8.850;2023-04-08T12:45:28;13.90;99.90
32334;DHT22;18810;53.040;8.850;2023-04-08T12:47:54;13.90;99.90
32334;DHT22;18810;53.040;8.850;2023-04-08T12:50:20;13.80;99.90
32334;DHT22;18810;53.040;8.850;2023-04-08T12:52:45;13.70;99.90
32334;DHT22;18810;53.040;8.850;2023-04-08T12:55:11;13.60;99.90
32334;DHT22;18810;53.040;8.850;2023-04-08T12:57:37;13.60;99.90
32334;DHT22;18810;53.040;8.850;2023-04-08T13:00:03;13.50;99.90
32334;DHT22;18810;53.040;8.850;2023-04-08T13:02:29;13.60;99.90
32334;DHT22;18810;53.040;8.850;2023-04-08T13:04:54;13.60;99.90
32334;DHT22;18810;53.040;8.850;2023-04-08T13:07:20;13.50;99.90
32334;DHT22;18810;53.040;8.850;2023-04-08T13:09:46;13.50;99.90
32334;DHT22;18810;53.040;8.850;2023-04-08T13:12:12;13.50;99.90
32334;DHT22;18810;53.040;8.850;2023-04-08T13:14:37;13.50;99.90
32334;DHT22;18810;53.040;8.850;2023-04-08T13:17:04;13.50;99.90
32334;DHT22;18810;53.040;8.850;2023-04-08T13:19:29;13.40;99.90
32334;DHT22;18810;53.040;8.850;2023-04-08T13:21:55;13.60;99.90
32334;DHT22;18810;53.040;8.850;2023-04-08T13:24:21;13.70;99.90
32334;DHT22;18810;53.040;8.850;2023-04-08T13:26:47;13.80;99.90
32334;DHT22;18810;53.040;8.850;2023-04-08T13:29:12;13.80;99.90
32334;DHT22;18810;53.040;8.850;2023-04-08T13:31:38;13.70;99.90
32334;DHT22;18810;53.040;8.850;2023-04-08T13:34:04;13.80;99.90
32334;DHT22;18810;53.040;8.850;2023-04-08T13:36:29;13.80;99.90
32334;DHT22;18810;53.040;8.850;2023-04-08T13:38:56;13.90;99.90
32334;DHT22;18810;53.040;8.850;2023-04-08T13:41:22;14.00;99.90
32334;DHT22;18810;53.040;8.850;2023-04-08T13:43:49;13.90;99.90
32334;DHT22;18810;53.040;8.850;2023-04-08T13:46:15;13.90;99.90
32334;DHT22;18810;53.040;8.850;2023-04-08T13:48:41;14.00;99.90
32334;DHT22;18810;53.040;8.850;2023-04-08T13:51:07;13.80;99.90
32334;DHT22;18810;53.040;8.850;2023-04-08T13:53:32;13.70;99.90
32334;DHT22;18810;53.040;8.850;2023-04-08T13:55:58;13.80;99.90
32334;DHT22;18810;53.040;8.850;2023-04-08T13:58:24;13.90;99.90
32334;DHT22;18810;53.040;8.850;2023-04-08T14:00:51;14.10;99.90
32334;DHT22;18810;53.040;8.850;2023-04-08T14:03:17;14.20;99.90
32334;DHT22;18810;53.040;8.850;2023-04-08T14:05:43;13.90;99.90
32334;DHT22;18810;53.040;8.850;2023-04-08T14:08:09;13.70;99.90
32334;DHT22;18810;53.040;8.850;2023-04-08T14:10:36;13.70;99.90
32334;DHT22;18810;53.040;8.850;2023-04-08T14:13:02;13.80;99.90
32334;DHT22;18810;53.040;8.850;2023-04-08T14:15:28;13.90;99.90
32334;DHT22;18810;53.040;8.850;2023-04-08T14:17:53;14.00;99.90
32334;DHT22;18810;53.040;8.850;2023-04-08T14:20:20;13.90;99.90
32334;DHT22;18810;53.040;8.850;2023-04-08T14:22:45;13.80;99.90
32334;DHT22;18810;53.040;8.850;2023-04-08T14:25:11;13.60;99.90
32334;DHT22;18810;53.040;8.850;2023-04-08T14:27:37;13.60;99.90
32334;DHT22;18810;53.040;8.850;2023-04-08T14:30:03;13.70;99.90
32334;DHT22;18810;53.040;8.850;2023-04-08T14:32:28;13.50;99.90
32334;DHT22;18810;53.040;8.850;2023-04-08T14:34:54;13.30;99.90
32334;DHT22;18810;53.040;8.850;2023-04-08T14:37:20;13.20;99.90
32334;DHT22;18810;53.040;8.850;2023-04-08T14:39:46;13.20;99.90
32334;DHT22;18810;53.040;8.850;2023-04-08T14:42:11;13.10;99.90
32334;DHT22;18810;53.040;8.850;2023-04-08T14:44:37;13.20;99.90
32334;DHT22;18810;53.040;8.850;2023-04-08T14:47:03;13.10;99.90
32334;DHT22;18810;53.040;8.850;2023-04-08T14:49:28;13.10;99.90
32334;DHT22;18810;53.040;8.850;2023-04-08T14:51:54;13.20;99.90
32334;DHT22;18810;53.040;8.850;2023-04-08T14:54:20;13.30;99.90
32334;DHT22;18810;53.040;8.850;2023-04-08T14:56:46;13.40;99.90
32334;DHT22;18810;53.040;8.850;2023-04-08T14:59:11;13.30;99.90
32334;DHT22;18810;53.040;8.850;2023-04-08T15:01:37;13.40;99.90
32334;DHT22;18810;53.040;8.850;2023-04-08T15:04:03;13.40;99.90
32334;DHT22;18810;53.040;8.850;2023-04-08T15:06:28;13.30;99.90
32334;DHT22;18810;53.040;8.850;2023-04-08T15:08:55;13.30;99.90
32334;DHT22;18810;53.040;8.850;2023-04-08T15:11:21;13.20;99.90
32334;DHT22;18810;53.040;8.850;2023-04-08T15:13:47;13.00;99.90
32334;DHT22;18810;53.040;8.850;2023-04-08T15:16:12;12.80;99.90
32334;DHT22;18810;53.040;8.850;2023-04-08T15:18:38;12.80;99.90
32334;DHT22;18810;53.040;8.850;2023-04-08T15:21:04;12.70;99.90
32334;DHT22;18810;53.040;8.850;2023-04-08T15:23:30;12.80;99.90
32334;DHT22;18810;53.040;8.850;2023-04-08T15:25:56;12.80;99.90
32334;DHT22;18810;53.040;8.850;2023-04-08T15:28:22;13.10;99.90
32334;DHT22;18810;53.040;8.850;2023-04-08T15:30:48;13.10;99.90
32334;DHT22;18810;53.040;8.850;2023-04-08T15:33:14;13.30;99.90
32334;DHT22;18810;53.040;8.850;2023-04-08T15:35:44;13.30;99.90
32334;DHT22;18810;53.040;8.850;2023-04-08T15:38:10;13.00;99.90
32334;DHT22;18810;53.040;8.850;2023-04-08T15:40:36;13.00;99.90
32334;DHT22;18810;53.040;8.850;2023-04-08T15:43:02;12.80;99.90
32334;DHT22;18810;53.040;8.850;2023-04-08T15:45:28;12.40;99.90
32334;DHT22;18810;53.040;8.850;2023-04-08T15:47:54;12.50;99.90
32334;DHT22;18810;53.040;8.850;2023-04-08T15:50:20;12.60;99.90
32334;DHT22;18810;53.040;8.850;2023-04-08T15:52:46;12.70;99.90
32334;DHT22;18810;53.040;8.850;2023-04-08T15:55:12;12.70;99.90